sensor_id;sensor_type;location;lat;lon;timestamp;pressure;altitude;pressure_sealevel;temperature;humidity
70434;BME280;57876;47.792;12.960;2023-05-23T00:01:09;96398.47;;;18.27;52.88
70434;BME280;57876;47.792;12.960;2023-05-23T00:03:33;96399.63;;;18.26;52.93
70434;BME280;57876;47.792;12.960;2023-05-23T00:05:58;96400.88;;;18.29;52.69
70434;BME280;57876;47.792;12.960;2023-05-23T00:08:22;96397.69;;;18.26;52.74
70434;BME280;57876;47.792;12.960;2023-05-23T00:10:47;96403.16;;;18.26;52.81
70434;BME280;57876;47.792;12.960;2023-05-23T00:13:11;96405.22;;;18.30;52.93
70434;BME280;57876;47.792;12.960;2023-05-23T00:15:36;96407.06;;;18.25;52.79
70434;BME280;57876;47.792;12.960;2023-05-23T00:18:00;96416.53;;;18.28;52.74
70434;BME280;57876;47.792;12.960;2023-05-23T00:20:25;96401.69;;;18.29;52.84
70434;BME280;57876;47.792;12.960;2023-05-23T00:22:49;96409.78;;;18.25;52.87
70434;BME280;57876;47.792;12.960;2023-05-23T00:25:13;96409.34;;;18.23;52.76
70434;BME280;57876;47.792;12.960;2023-05-23T00:27:38;96412.53;;;18.25;52.82
70434;BME280;57876;47.792;12.960;2023-05-23T00:30:02;96399.41;;;18.19;52.87
70434;BME280;57876;47.792;12.960;2023-05-23T00:32:27;96403.75;;;18.20;53.10
70434;BME280;57876;47.792;12.960;2023-05-23T00:34:51;96406.97;;;18.22;52.71
70434;BME280;57876;47.792;12.960;2023-05-23T00:37:17;96410.94;;;18.24;52.93
70434;BME280;57876;47.792;12.960;2023-05-23T00:39:41;96407.75;;;18.22;52.98
70434;BME280;57876;47.792;12.960;2023-05-23T00:42:06;96410.94;;;18.24;53.07
70434;BME280;57876;47.792;12.960;2023-05-23T00:44:30;96410.03;;;18.20;52.70
70434;BME280;57876;47.792;12.960;2023-05-23T00:46:56;96412.44;;;18.22;52.80
70434;BME280;57876;47.792;12.960;2023-05-23T00:49:21;96418.81;;;18.26;52.88
70434;BME280;57876;47.792;12.960;2023-05-23T00:51:46;96412.88;;;18.24;52.71
70434;BME280;57876;47.792;12.960;2023-05-23T00:54:14;96427.38;;;18.24;52.72
70434;BME280;57876;47.792;12.960;2023-05-23T00:56:39;96411.59;;;18.21;52.94
70434;BME280;57876;47.792;12.960;2023-05-23T00:59:05;96425.53;;;18.29;52.76
70434;BME280;57876;47.792;12.960;2023-05-23T01:01:30;96414.91;;;18.27;52.70
70434;BME280;57876;47.792;12.960;2023-05-23T01:03:55;96422.09;;;18.32;52.77
70434;BME280;57876;47.792;12.960;2023-05-23T01:06:19;96432.25;;;18.31;53.03
70434;BME280;57876;47.792;12.960;2023-05-23T01:08:44;96430.78;;;18.34;52.73
70434;BME280;57876;47.792;12.960;2023-05-23T01:11:18;96431.00;;;18.29;52.89
70434;BME280;57876;47.792;12.960;2023-05-23T01:13:58;96432.72;;;18.33;52.49
70434;BME280;57876;47.792;12.960;2023-05-23T01:16:39;96434.31;;;18.34;52.61
70434;BME280;57876;47.792;12.960;2023-05-23T01:19:11;96438.75;;;18.39;52.69
70434;BME280;57876;47.792;12.960;2023-05-23T01:21:40;96435.09;;;18.35;52.81
70434;BME280;57876;47.792;12.960;2023-05-23T01:24:35;96443.44;;;18.38;52.65
70434;BME280;57876;47.792;12.960;2023-05-23T01:30:17;96442.53;;;18.34;52.81
70434;BME280;57876;47.792;12.960;2023-05-23T01:32:42;96441.81;;;18.37;52.70
70434;BME280;57876;47.792;12.960;2023-05-23T01:35:07;96444.22;;;18.39;52.70
70434;BME280;57876;47.792;12.960;2023-05-23T01:37:32;96448.00;;;18.34;52.83
70434;BME280;57876;47.792;12.960;2023-05-23T01:39:57;96441.72;;;18.34;52.71
70434;BME280;57876;47.792;12.960;2023-05-23T01:42:21;96444.69;;;18.29;52.71
70434;BME280;57876;47.792;12.960;2023-05-23T01:44:46;96455.41;;;18.34;52.66
70434;BME280;57876;47.792;12.960;2023-05-23T01:47:11;96447.91;;;18.31;52.65
70434;BME280;57876;47.792;12.960;2023-05-23T01:49:37;96459.63;;;18.31;52.68
70434;BME280;57876;47.792;12.960;2023-05-23T01:52:02;96449.94;;;18.34;52.69
70434;BME280;57876;47.792;12.960;2023-05-23T01:54:28;96464.78;;;18.33;52.71
70434;BME280;57876;47.792;12.960;2023-05-23T01:56:56;96447.75;;;18.27;52.88
70434;BME280;57876;47.792;12.960;2023-05-23T01:59:20;96462.03;;;18.33;52.86
70434;BME280;57876;47.792;12.960;2023-05-23T02:01:44;96442.41;;;18.31;52.79
70434;BME280;57876;47.792;12.960;2023-05-23T02:04:09;96455.75;;;18.32;52.93
70434;BME280;57876;47.792;12.960;2023-05-23T02:06:33;96453.84;;;18.33;52.66
70434;BME280;57876;47.792;12.960;2023-05-23T02:08:58;96455.63;;;18.29;52.70
70434;BME280;57876;47.792;12.960;2023-05-23T02:11:22;96462.84;;;18.33;52.72
70434;BME280;57876;47.792;12.960;2023-05-23T02:13:47;96458.84;;;18.31;52.73
70434;BME280;57876;47.792;12.960;2023-05-23T02:16:11;96463.97;;;18.32;52.32
70434;BME280;57876;47.792;12.960;2023-05-23T02:18:37;96454.50;;;18.30;52.63
70434;BME280;57876;47.792;12.960;2023-05-23T02:21:05;96462.03;;;18.33;52.78
70434;BME280;57876;47.792;12.960;2023-05-23T02:23:30;96453.38;;;18.31;52.87
70434;BME280;57876;47.792;12.960;2023-05-23T02:25:54;96461.22;;;18.32;52.73
70434;BME280;57876;47.792;12.960;2023-05-23T02:28:19;96462.84;;;18.33;52.41
70434;BME280;57876;47.792;12.960;2023-05-23T02:30:43;96449.47;;;18.32;52.68
70434;BME280;57876;47.792;12.960;2023-05-23T02:33:08;96456.22;;;18.34;52.72
70434;BME280;57876;47.792;12.960;2023-05-23T02:35:32;96471.50;;;18.35;52.81
70434;BME280;57876;47.792;12.960;2023-05-23T02:37:57;96457.00;;;18.35;52.67
70434;BME280;57876;47.792;12.960;2023-05-23T02:40:21;96463.72;;;18.37;52.60
70434;BME280;57876;47.792;12.960;2023-05-23T02:42:46;96459.06;;;18.38;52.76
70434;BME280;57876;47.792;12.960;2023-05-23T02:45:10;96462.25;;;18.40;52.84
70434;BME280;57876;47.792;12.960;2023-05-23T02:47:35;96464.28;;;18.43;52.69
70434;BME280;57876;47.792;12.960;2023-05-23T02:49:59;96472.50;;;18.43;52.77
70434;BME280;57876;47.792;12.960;2023-05-23T02:52:24;96461.56;;;18.43;52.78
70434;BME280;57876;47.792;12.960;2023-05-23T02:54:48;96462.03;;;18.33;52.84
70434;BME280;57876;47.792;12.960;2023-05-23T02:57:13;96485.06;;;18.44;52.73
70434;BME280;57876;47.792;12.960;2023-05-23T02:59:37;96483.47;;;18.43;52.59
70434;BME280;57876;47.792;12.960;2023-05-23T03:02:02;96475.97;;;18.27;52.63
70434;BME280;57876;47.792;12.960;2023-05-23T03:04:26;96476.28;;;18.38;53.04
70434;BME280;57876;47.792;12.960;2023-05-23T03:06:51;96483.47;;;18.43;52.89
70434;BME280;57876;47.792;12.960;2023-05-23T03:09:17;96481.09;;;18.41;52.81
70434;BME280;57876;47.792;12.960;2023-05-23T03:11:42;96477.19;;;18.42;52.83
70434;BME280;57876;47.792;12.960;2023-05-23T03:14:06;96484.16;;;18.40;52.71
70434;BME280;57876;47.792;12.960;2023-05-23T03:16:30;96465.22;;;18.35;52.68
70434;BME280;57876;47.792;12.960;2023-05-23T03:18:55;96477.56;;;18.41;52.91
70434;BME280;57876;47.792;12.960;2023-05-23T03:21:19;96466.81;;;18.36;52.75
70434;BME280;57876;47.792;12.960;2023-05-23T03:23:44;96474.03;;;18.40;52.88
70434;BME280;57876;47.792;12.960;2023-05-23T03:26:08;96479.50;;;18.40;52.78
70434;BME280;57876;47.792;12.960;2023-05-23T03:28:33;96458.94;;;18.34;52.50
70434;BME280;57876;47.792;12.960;2023-05-23T03:30:58;96458.94;;;18.34;52.89
70434;BME280;57876;47.792;12.960;2023-05-23T03:33:22;96456.22;;;18.34;52.75
70434;BME280;57876;47.792;12.960;2023-05-23T03:35:46;96471.38;;;18.32;52.56
70434;BME280;57876;47.792;12.960;2023-05-23T03:38:11;96478.56;;;18.36;52.62
70434;BME280;57876;47.792;12.960;2023-05-23T03:40:35;96478.91;;;18.35;52.76
70434;BME280;57876;47.792;12.960;2023-05-23T03:43:04;96482.34;;;18.32;52.93
70434;BME280;57876;47.792;12.960;2023-05-23T03:45:32;96490.69;;;18.35;52.64
70434;BME280;57876;47.792;12.960;2023-05-23T03:47:57;96491.00;;;18.34;52.56
70434;BME280;57876;47.792;12.960;2023-05-23T03:50:22;96503.22;;;18.36;52.70
70434;BME280;57876;47.792;12.960;2023-05-23T03:52:46;96503.53;;;18.35;52.54
70434;BME280;57876;47.792;12.960;2023-05-23T03:55:10;96491.22;;;18.29;52.73
70434;BME280;57876;47.792;12.960;2023-05-23T03:57:35;96501.72;;;18.39;52.72
70434;BME280;57876;47.792;12.960;2023-05-23T03:59:59;96511.53;;;18.40;52.42
70434;BME280;57876;47.792;12.960;2023-05-23T04:02:24;96495.56;;;18.30;52.75
70434;BME280;57876;47.792;12.960;2023-05-23T04:04:48;96508.38;;;18.38;52.65
70434;BME280;57876;47.792;12.960;2023-05-23T04:07:12;96506.06;;;18.40;52.53
70434;BME280;57876;47.792;12.960;2023-05-23T04:09:38;96518.72;;;18.44;52.46
70434;BME280;57876;47.792;12.960;2023-05-23T04:12:03;96509.25;;;18.42;52.76
70434;BME280;57876;47.792;12.960;2023-05-23T04:14:27;96505.72;;;18.41;52.67
70434;BME280;57876;47.792;12.960;2023-05-23T04:16:52;96514.03;;;18.45;52.62
70434;BME280;57876;47.792;12.960;2023-05-23T04:19:16;96503.78;;;18.42;52.51
70434;BME280;57876;47.792;12.960;2023-05-23T04:21:41;96501.84;;;18.42;52.76
70434;BME280;57876;47.792;12.960;2023-05-23T04:24:05;96512.94;;;18.46;52.91
70434;BME280;57876;47.792;12.960;2023-05-23T04:26:29;96515.53;;;18.42;52.72
70434;BME280;57876;47.792;12.960;2023-05-23T04:28:54;96495.78;;;18.37;52.80
70434;BME280;57876;47.792;12.960;2023-05-23T04:31:21;96515.19;;;18.44;52.70
70434;BME280;57876;47.792;12.960;2023-05-23T04:33:47;96502.41;;;18.36;52.40
70434;BME280;57876;47.792;12.960;2023-05-23T04:36:11;96518.72;;;18.44;52.68
70434;BME280;57876;47.792;12.960;2023-05-23T04:38:36;96516.78;;;18.45;52.91
70434;BME280;57876;47.792;12.960;2023-05-23T04:41:01;96507.69;;;18.41;52.62
70434;BME280;57876;47.792;12.960;2023-05-23T04:43:26;96520.31;;;18.45;52.84
70434;BME280;57876;47.792;12.960;2023-05-23T04:45:52;96525.69;;;18.42;52.67
70434;BME280;57876;47.792;12.960;2023-05-23T04:48:20;96530.00;;;18.43;52.74
70434;BME280;57876;47.792;12.960;2023-05-23T04:50:45;96538.69;;;18.45;52.71
70434;BME280;57876;47.792;12.960;2023-05-23T04:53:10;96527.53;;;18.38;52.78
70434;BME280;57876;47.792;12.960;2023-05-23T04:55:35;96519.19;;;18.34;52.64
70434;BME280;57876;47.792;12.960;2023-05-23T04:57:59;96530.00;;;18.43;52.71
70434;BME280;57876;47.792;12.960;2023-05-23T05:00:24;96531.84;;;18.39;52.53
70434;BME280;57876;47.792;12.960;2023-05-23T05:02:48;96540.63;;;18.44;52.54
70434;BME280;57876;47.792;12.960;2023-05-23T05:05:13;96535.06;;;18.41;52.62
70434;BME280;57876;47.792;12.960;2023-05-23T05:07:37;96531.97;;;18.42;52.74
70434;BME280;57876;47.792;12.960;2023-05-23T05:10:02;96531.63;;;18.44;52.54
70434;BME280;57876;47.792;12.960;2023-05-23T05:12:26;96530.38;;;18.41;52.71
70434;BME280;57876;47.792;12.960;2023-05-23T05:14:51;96533.44;;;18.40;52.46
70434;BME280;57876;47.792;12.960;2023-05-23T05:17:15;96531.06;;;18.38;52.68
70434;BME280;57876;47.792;12.960;2023-05-23T05:19:40;96525.91;;;18.37;52.53
70434;BME280;57876;47.792;12.960;2023-05-23T05:22:04;96521.13;;;18.34;52.50
70434;BME280;57876;47.792;12.960;2023-05-23T05:24:29;96515.97;;;18.32;52.63
70434;BME280;57876;47.792;12.960;2023-05-23T05:26:53;96534.25;;;18.40;52.61
70434;BME280;57876;47.792;12.960;2023-05-23T05:29:18;96527.63;;;18.41;52.65
70434;BME280;57876;47.792;12.960;2023-05-23T05:31:42;96523.31;;;18.40;52.46
70434;BME280;57876;47.792;12.960;2023-05-23T05:34:08;96534.38;;;18.44;52.47
70434;BME280;57876;47.792;12.960;2023-05-23T05:36:32;96519.06;;;18.43;52.85
70434;BME280;57876;47.792;12.960;2023-05-23T05:38:57;96525.00;;;18.45;52.63
70434;BME280;57876;47.792;12.960;2023-05-23T05:41:21;96522.50;;;18.40;52.70
70434;BME280;57876;47.792;12.960;2023-05-23T05:43:46;96519.31;;;18.38;52.62
70434;BME280;57876;47.792;12.960;2023-05-23T05:46:10;96519.88;;;18.43;52.54
70434;BME280;57876;47.792;12.960;2023-05-23T05:48:35;96520.22;;;18.42;52.73
70434;BME280;57876;47.792;12.960;2023-05-23T05:50:59;96524.91;;;18.41;52.33
70434;BME280;57876;47.792;12.960;2023-05-23T05:53:24;96523.63;;;18.39;52.64
70434;BME280;57876;47.792;12.960;2023-05-23T05:55:48;96516.22;;;18.39;52.59
70434;BME280;57876;47.792;12.960;2023-05-23T05:58:13;96529.56;;;18.41;52.66
70434;BME280;57876;47.792;12.960;2023-05-23T06:00:37;96530.47;;;18.45;52.70
70434;BME280;57876;47.792;12.960;2023-05-23T06:03:05;96509.94;;;18.39;52.67
70434;BME280;57876;47.792;12.960;2023-05-23T06:05:29;96526.47;;;18.42;52.69
70434;BME280;57876;47.792;12.960;2023-05-23T06:07:54;96521.44;;;18.32;52.57
70434;BME280;57876;47.792;12.960;2023-05-23T06:10:18;96508.34;;;18.25;52.71
70434;BME280;57876;47.792;12.960;2023-05-23T06:12:43;96526.50;;;18.30;52.57
70434;BME280;57876;47.792;12.960;2023-05-23T06:15:09;96536.28;;;18.31;52.59
70434;BME280;57876;47.792;12.960;2023-05-23T06:17:33;96550.69;;;18.40;52.88
70434;BME280;57876;47.792;12.960;2023-05-23T06:19:58;96545.44;;;18.35;52.64
70434;BME280;57876;47.792;12.960;2023-05-23T06:22:22;96552.81;;;18.35;52.65
70434;BME280;57876;47.792;12.960;2023-05-23T06:24:47;96557.50;;;18.34;52.81
70434;BME280;57876;47.792;12.960;2023-05-23T06:27:11;96562.19;;;18.34;52.74
70434;BME280;57876;47.792;12.960;2023-05-23T06:29:36;96559.00;;;18.32;52.84
70434;BME280;57876;47.792;12.960;2023-05-23T06:32:00;96561.25;;;18.30;52.84
70434;BME280;57876;47.792;12.960;2023-05-23T06:34:25;96563.34;;;18.33;52.92
70434;BME280;57876;47.792;12.960;2023-05-23T06:36:49;96563.69;;;18.31;52.77
70434;BME280;57876;47.792;12.960;2023-05-23T06:39:14;96558.41;;;18.26;52.82
70434;BME280;57876;47.792;12.960;2023-05-23T06:41:38;96569.38;;;18.26;52.83
70434;BME280;57876;47.792;12.960;2023-05-23T06:44:03;96563.44;;;18.24;52.61
70434;BME280;57876;47.792;12.960;2023-05-23T06:46:27;96566.63;;;18.26;52.81
70434;BME280;57876;47.792;12.960;2023-05-23T06:48:52;96570.16;;;18.26;52.91
70434;BME280;57876;47.792;12.960;2023-05-23T06:51:16;96569.84;;;18.28;52.69
70434;BME280;57876;47.792;12.960;2023-05-23T06:53:40;96568.22;;;18.27;52.74
70434;BME280;57876;47.792;12.960;2023-05-23T06:56:05;96565.38;;;18.23;52.63
70434;BME280;57876;47.792;12.960;2023-05-23T06:58:29;96566.63;;;18.26;52.72
70434;BME280;57876;47.792;12.960;2023-05-23T07:00:54;96536.06;;;18.12;52.77
70434;BME280;57876;47.792;12.960;2023-05-23T07:03:18;96556.94;;;18.29;52.80
70434;BME280;57876;47.792;12.960;2023-05-23T07:05:43;96554.78;;;18.22;52.75
70434;BME280;57876;47.792;12.960;2023-05-23T07:08:07;96549.63;;;18.20;52.77
70434;BME280;57876;47.792;12.960;2023-05-23T07:10:33;96565.25;;;18.32;52.74
70434;BME280;57876;47.792;12.960;2023-05-23T07:12:58;96553.50;;;18.32;52.75
70434;BME280;57876;47.792;12.960;2023-05-23T07:15:23;96559.78;;;18.32;52.76
70434;BME280;57876;47.792;12.960;2023-05-23T07:17:47;96557.72;;;18.29;52.55
70434;BME280;57876;47.792;12.960;2023-05-23T07:20:11;96564.94;;;18.34;52.71
70434;BME280;57876;47.792;12.960;2023-05-23T07:22:36;96554.31;;;18.32;52.65
70434;BME280;57876;47.792;12.960;2023-05-23T07:25:00;96563.69;;;18.31;52.61
70434;BME280;57876;47.792;12.960;2023-05-23T07:27:28;96551.34;;;18.25;52.79
70434;BME280;57876;47.792;12.960;2023-05-23T07:29:52;96551.69;;;18.23;52.47
70434;BME280;57876;47.792;12.960;2023-05-23T07:32:17;96550.78;;;18.32;52.38
70434;BME280;57876;47.792;12.960;2023-05-23T07:34:41;96548.03;;;18.32;52.51
70434;BME280;57876;47.792;12.960;2023-05-23T07:37:05;96545.75;;;18.34;52.47
70434;BME280;57876;47.792;12.960;2023-05-23T07:39:30;96553.75;;;18.39;52.77
70434;BME280;57876;47.792;12.960;2023-05-23T07:41:54;96547.81;;;18.37;52.60
70434;BME280;57876;47.792;12.960;2023-05-23T07:44:19;96546.00;;;18.41;52.66
70434;BME280;57876;47.792;12.960;2023-05-23T07:46:43;96536.88;;;18.24;52.73
70434;BME280;57876;47.792;12.960;2023-05-23T07:49:07;96549.28;;;18.34;52.49
70434;BME280;57876;47.792;12.960;2023-05-23T07:51:33;96543.25;;;18.29;52.67
70434;BME280;57876;47.792;12.960;2023-05-23T07:53:58;96547.13;;;18.27;52.48
70434;BME280;57876;47.792;12.960;2023-05-23T07:56:22;96555.13;;;18.33;52.73
70434;BME280;57876;47.792;12.960;2023-05-23T07:58:46;96555.47;;;18.31;52.49
70434;BME280;57876;47.792;12.960;2023-05-23T08:01:11;96559.22;;;18.26;52.79
70434;BME280;57876;47.792;12.960;2023-05-23T08:03:35;96538.34;;;18.22;52.63
70434;BME280;57876;47.792;12.960;2023-05-23T08:06:00;96559.91;;;18.36;52.65
70434;BME280;57876;47.792;12.960;2023-05-23T08:08:25;96554.31;;;18.32;52.52
70434;BME280;57876;47.792;12.960;2023-05-23T08:10:49;96552.41;;;18.33;52.65
70434;BME280;57876;47.792;12.960;2023-05-23T08:13:13;96550.31;;;18.30;52.47
70434;BME280;57876;47.792;12.960;2023-05-23T08:15:39;96561.03;;;18.35;52.46
70434;BME280;57876;47.792;12.960;2023-05-23T08:18:04;96553.97;;;18.34;52.58
70434;BME280;57876;47.792;12.960;2023-05-23T08:20:28;96552.25;;;18.29;52.92
70434;BME280;57876;47.792;12.960;2023-05-23T08:22:59;96560.72;;;18.36;52.37
70434;BME280;57876;47.792;12.960;2023-05-23T08:25:26;96564.25;;;18.37;52.78
70434;BME280;57876;47.792;12.960;2023-05-23T08:27:59;96554.19;;;18.29;52.85
70434;BME280;57876;47.792;12.960;2023-05-23T08:30:25;96555.56;;;18.35;52.84
70434;BME280;57876;47.792;12.960;2023-05-23T08:32:53;96539.25;;;18.26;52.64
70434;BME280;57876;47.792;12.960;2023-05-23T08:35:18;96548.94;;;18.23;52.82
70434;BME280;57876;47.792;12.960;2023-05-23T08:37:42;96549.53;;;18.29;52.72
70434;BME280;57876;47.792;12.960;2023-05-23T08:40:13;96542.56;;;18.19;52.62
70434;BME280;57876;47.792;12.960;2023-05-23T08:42:38;96545.75;;;18.21;52.86
70434;BME280;57876;47.792;12.960;2023-05-23T08:45:03;96557.84;;;18.20;52.69
70434;BME280;57876;47.792;12.960;2023-05-23T08:47:28;96548.25;;;18.14;52.84
70434;BME280;57876;47.792;12.960;2023-05-23T08:49:57;96588.53;;;18.26;52.82
70434;BME280;57876;47.792;12.960;2023-05-23T08:52:24;96583.94;;;18.18;52.78
70434;BME280;57876;47.792;12.960;2023-05-23T08:54:48;96590.38;;;18.22;52.90
70434;BME280;57876;47.792;12.960;2023-05-23T08:57:13;96589.44;;;18.18;52.81
70434;BME280;57876;47.792;12.960;2023-05-23T08:59:39;96602.09;;;18.22;52.94
70434;BME280;57876;47.792;12.960;2023-05-23T09:02:07;96590.69;;;18.20;52.88
70434;BME280;57876;47.792;12.960;2023-05-23T09:04:34;96591.69;;;18.16;52.95
70434;BME280;57876;47.792;12.960;2023-05-23T09:06:59;96588.84;;;18.12;52.65
70434;BME280;57876;47.792;12.960;2023-05-23T09:09:24;96601.38;;;18.13;52.64
70434;BME280;57876;47.792;12.960;2023-05-23T09:11:49;96614.84;;;18.18;52.87
70434;BME280;57876;47.792;12.960;2023-05-23T09:14:14;96593.59;;;18.03;52.92
70434;BME280;57876;47.792;12.960;2023-05-23T09:16:45;96613.47;;;18.12;52.86
70434;BME280;57876;47.792;12.960;2023-05-23T09:19:12;96607.44;;;18.07;52.99
70434;BME280;57876;47.792;12.960;2023-05-23T09:21:42;96615.22;;;18.17;52.66
70434;BME280;57876;47.792;12.960;2023-05-23T09:24:06;96615.06;;;18.13;52.76
70434;BME280;57876;47.792;12.960;2023-05-23T09:26:30;96612.22;;;18.10;52.87
70434;BME280;57876;47.792;12.960;2023-05-23T09:28:59;96613.94;;;18.14;52.73
70434;BME280;57876;47.792;12.960;2023-05-23T09:31:25;96623.97;;;18.10;52.72
70434;BME280;57876;47.792;12.960;2023-05-23T09:33:51;96625.69;;;18.15;52.85
70434;BME280;57876;47.792;12.960;2023-05-23T09:36:17;96633.13;;;18.14;53.04
70434;BME280;57876;47.792;12.960;2023-05-23T09:38:43;96634.22;;;18.13;52.77
70434;BME280;57876;47.792;12.960;2023-05-23T09:41:08;96629.44;;;18.10;52.64
70434;BME280;57876;47.792;12.960;2023-05-23T09:43:48;96628.75;;;18.13;52.93
70434;BME280;57876;47.792;12.960;2023-05-23T09:46:12;96633.66;;;18.08;52.85
70434;BME280;57876;47.792;12.960;2023-05-23T09:48:37;96633.78;;;18.11;53.02
70434;BME280;57876;47.792;12.960;2023-05-23T09:51:06;96632.53;;;18.09;53.07
70434;BME280;57876;47.792;12.960;2023-05-23T09:53:31;96633.66;;;18.08;52.87
70434;BME280;57876;47.792;12.960;2023-05-23T09:55:57;96620.53;;;18.01;53.01
70434;BME280;57876;47.792;12.960;2023-05-23T09:58:23;96626.22;;;18.08;52.65
70434;BME280;57876;47.792;12.960;2023-05-23T10:00:50;96609.22;;;18.02;52.83
70434;BME280;57876;47.792;12.960;2023-05-23T10:03:16;96618.84;;;18.09;52.71
70434;BME280;57876;47.792;12.960;2023-05-23T10:05:48;96614.69;;;18.02;53.02
70434;BME280;57876;47.792;12.960;2023-05-23T10:13:27;96619.38;;;18.02;53.01
70434;BME280;57876;47.792;12.960;2023-05-23T10:16:26;96599.91;;;18.03;52.83
70434;BME280;57876;47.792;12.960;2023-05-23T10:18:55;96577.28;;;17.94;52.91
70434;BME280;57876;47.792;12.960;2023-05-23T10:21:28;96570.53;;;17.92;52.91
70434;BME280;57876;47.792;12.960;2023-05-23T10:23:58;96589.97;;;17.99;52.74
70434;BME280;57876;47.792;12.960;2023-05-23T10:26:23;96575.81;;;17.97;53.13
70434;BME280;57876;47.792;12.960;2023-05-23T10:28:48;96579.00;;;17.99;52.82
70434;BME280;57876;47.792;12.960;2023-05-23T10:31:13;96564.19;;;18.00;52.87
70434;BME280;57876;47.792;12.960;2023-05-23T10:33:42;96578.31;;;18.02;52.79
70434;BME280;57876;47.792;12.960;2023-05-23T10:36:18;96570.59;;;18.04;52.84
70434;BME280;57876;47.792;12.960;2023-05-23T10:41:23;96582.91;;;18.10;52.61
70434;BME280;57876;47.792;12.960;2023-05-23T10:44:11;96578.13;;;18.07;52.81
70434;BME280;57876;47.792;12.960;2023-05-23T10:46:59;96580.53;;;18.09;52.77
70434;BME280;57876;47.792;12.960;2023-05-23T10:49:41;96587.59;;;18.10;52.99
70434;BME280;57876;47.792;12.960;2023-05-23T10:52:07;96595.13;;;18.13;52.78
70434;BME280;57876;47.792;12.960;2023-05-23T10:54:49;96586.44;;;18.11;52.89
70434;BME280;57876;47.792;12.960;2023-05-23T10:57:16;96600.72;;;18.16;52.71
70434;BME280;57876;47.792;12.960;2023-05-23T10:59:40;96589.75;;;18.16;52.86
70434;BME280;57876;47.792;12.960;2023-05-23T11:02:12;96592.38;;;18.13;52.74
70434;BME280;57876;47.792;12.960;2023-05-23T11:04:37;96583.38;;;18.12;52.74
70434;BME280;57876;47.792;12.960;2023-05-23T11:07:02;96563.63;;;18.07;52.74
70434;BME280;57876;47.792;12.960;2023-05-23T11:09:26;96581.91;;;18.15;53.09
70434;BME280;57876;47.792;12.960;2023-05-23T11:14:19;96581.09;;;18.14;52.84
70434;BME280;57876;47.792;12.960;2023-05-23T11:16:54;96601.06;;;18.15;52.93
70434;BME280;57876;47.792;12.960;2023-05-23T11:21:49;96591.59;;;18.12;52.73
70434;BME280;57876;47.792;12.960;2023-05-23T11:24:13;96593.63;;;18.15;52.85
70434;BME280;57876;47.792;12.960;2023-05-23T11:26:38;96584.84;;;18.10;52.66
70434;BME280;57876;47.792;12.960;2023-05-23T11:29:07;96590.00;;;18.11;53.01
70434;BME280;57876;47.792;12.960;2023-05-23T11:31:39;96600.00;;;18.07;53.12
70434;BME280;57876;47.792;12.960;2023-05-23T11:34:04;96592.75;;;18.11;52.98
70434;BME280;57876;47.792;12.960;2023-05-23T11:36:29;96602.19;;;18.14;53.19
70434;BME280;57876;47.792;12.960;2023-05-23T11:38:54;96604.81;;;18.10;52.84
70434;BME280;57876;47.792;12.960;2023-05-23T11:41:19;96601.28;;;18.10;52.81
70434;BME280;57876;47.792;12.960;2023-05-23T11:43:49;96611.53;;;18.13;52.93
70434;BME280;57876;47.792;12.960;2023-05-23T11:46:14;96617.00;;;18.13;53.26
70434;BME280;57876;47.792;12.960;2023-05-23T11:48:43;96607.91;;;18.09;53.01
70434;BME280;57876;47.792;12.960;2023-05-23T11:51:08;96600.47;;;18.09;53.30
70434;BME280;57876;47.792;12.960;2023-05-23T11:53:32;96597.97;;;18.04;52.87
70434;BME280;57876;47.792;12.960;2023-05-23T11:55:57;96566.53;;;17.89;53.24
70434;BME280;57876;47.792;12.960;2023-05-23T11:58:37;96592.47;;;18.04;53.10
70434;BME280;57876;47.792;12.960;2023-05-23T12:01:06;96602.19;;;18.14;52.91
70434;BME280;57876;47.792;12.960;2023-05-23T12:03:31;96583.25;;;18.09;53.13
70434;BME280;57876;47.792;12.960;2023-05-23T12:05:57;96600.06;;;18.19;52.96
70434;BME280;57876;47.792;12.960;2023-05-23T12:08:21;96606.22;;;18.29;52.89
70434;BME280;57876;47.792;12.960;2023-05-23T12:11:12;96619.22;;;18.32;53.04
70434;BME280;57876;47.792;12.960;2023-05-23T12:13:40;96617.50;;;18.27;53.23
70434;BME280;57876;47.792;12.960;2023-05-23T12:16:05;96623.22;;;18.34;53.47
70434;BME280;57876;47.792;12.960;2023-05-23T12:18:30;96624.00;;;18.35;53.24
70434;BME280;57876;47.792;12.960;2023-05-23T12:21:02;96617.63;;;18.31;53.53
70434;BME280;57876;47.792;12.960;2023-05-23T12:23:29;96610.78;;;18.24;53.44
70434;BME280;57876;47.792;12.960;2023-05-23T12:25:54;96614.84;;;18.18;53.53
70434;BME280;57876;47.792;12.960;2023-05-23T12:28:20;96621.28;;;18.22;53.29
70434;BME280;57876;47.792;12.960;2023-05-23T12:30:44;96622.75;;;18.20;53.44
70434;BME280;57876;47.792;12.960;2023-05-23T12:33:09;96610.75;;;18.12;53.37
70434;BME280;57876;47.792;12.960;2023-05-23T12:35:35;96602.41;;;18.09;53.52
70434;BME280;57876;47.792;12.960;2023-05-23T12:37:59;96597.47;;;18.02;53.49
70434;BME280;57876;47.792;12.960;2023-05-23T12:40:24;96630.38;;;18.14;53.58
70434;BME280;57876;47.792;12.960;2023-05-23T12:42:49;96619.28;;;18.11;53.60
70434;BME280;57876;47.792;12.960;2023-05-23T12:45:29;96620.09;;;18.11;53.60
70434;BME280;57876;47.792;12.960;2023-05-23T12:47:54;96626.69;;;18.10;53.41
70434;BME280;57876;47.792;12.960;2023-05-23T12:50:19;96616.22;;;18.12;53.76
70434;BME280;57876;47.792;12.960;2023-05-23T12:52:43;96619.28;;;18.11;53.62
70434;BME280;57876;47.792;12.960;2023-05-23T12:55:09;96604.09;;;18.01;53.81
70434;BME280;57876;47.792;12.960;2023-05-23T12:57:35;96591.53;;;18.00;53.72
70434;BME280;57876;47.792;12.960;2023-05-23T13:00:00;96607.06;;;18.08;53.64